sensor_id;sensor_type;location;lat;lon;timestamp;P1;durP1;ratioP1;P2;durP2;ratioP2
26820;SDS011;37186;51.394;5.454;2023-07-29T00:01:23;3.20;;;3.10;;
26820;SDS011;37186;51.394;5.454;2023-07-29T00:04:23;3.15;;;3.05;;
26820;SDS011;37186;51.394;5.454;2023-07-29T00:07:24;3.00;;;2.90;;
26820;SDS011;37186;51.394;5.454;2023-07-29T00:10:25;2.95;;;2.85;;
26820;SDS011;37186;51.394;5.454;2023-07-29T00:13:26;2.92;;;2.83;;
26820;SDS011;37186;51.394;5.454;2023-07-29T00:16:26;3.03;;;2.92;;
26820;SDS011;37186;51.394;5.454;2023-07-29T00:19:27;2.80;;;2.70;;
26820;SDS011;37186;51.394;5.454;2023-07-29T00:22:28;2.90;;;2.80;;
26820;SDS011;37186;51.394;5.454;2023-07-29T00:25:29;3.00;;;2.90;;
26820;SDS011;37186;51.394;5.454;2023-07-29T00:28:29;3.00;;;2.90;;
26820;SDS011;37186;51.394;5.454;2023-07-29T00:31:30;2.95;;;2.85;;
26820;SDS011;37186;51.394;5.454;2023-07-29T00:34:30;2.97;;;2.88;;
26820;SDS011;37186;51.394;5.454;2023-07-29T00:37:31;2.67;;;2.67;;
26820;SDS011;37186;51.394;5.454;2023-07-29T00:40:31;3.00;;;2.90;;
26820;SDS011;37186;51.394;5.454;2023-07-29T00:43:37;2.65;;;2.63;;
26820;SDS011;37186;51.394;5.454;2023-07-29T00:46:37;2.78;;;2.72;;
26820;SDS011;37186;51.394;5.454;2023-07-29T00:49:39;2.83;;;2.72;;
26820;SDS011;37186;51.394;5.454;2023-07-29T00:52:40;2.60;;;2.60;;
26820;SDS011;37186;51.394;5.454;2023-07-29T00:55:41;2.78;;;2.70;;
26820;SDS011;37186;51.394;5.454;2023-07-29T00:58:42;3.08;;;2.97;;
26820;SDS011;37186;51.394;5.454;2023-07-29T01:01:42;2.83;;;2.75;;
26820;SDS011;37186;51.394;5.454;2023-07-29T01:04:43;2.80;;;2.70;;
26820;SDS011;37186;51.394;5.454;2023-07-29T01:10:54;2.70;;;2.60;;
26820;SDS011;37186;51.394;5.454;2023-07-29T01:14:04;2.80;;;2.70;;
26820;SDS011;37186;51.394;5.454;2023-07-29T01:17:19;2.80;;;2.70;;
26820;SDS011;37186;51.394;5.454;2023-07-29T01:20:23;3.03;;;2.92;;
26820;SDS011;37186;51.394;5.454;2023-07-29T01:23:26;2.92;;;2.83;;
26820;SDS011;37186;51.394;5.454;2023-07-29T01:26:30;2.72;;;2.63;;
26820;SDS011;37186;51.394;5.454;2023-07-29T01:29:30;3.10;;;3.00;;
26820;SDS011;37186;51.394;5.454;2023-07-29T01:35:58;3.33;;;3.22;;
26820;SDS011;37186;51.394;5.454;2023-07-29T01:39:03;3.08;;;2.97;;
26820;SDS011;37186;51.394;5.454;2023-07-29T01:42:04;3.30;;;3.20;;
26820;SDS011;37186;51.394;5.454;2023-07-29T01:45:05;2.95;;;2.85;;
26820;SDS011;37186;51.394;5.454;2023-07-29T01:48:07;3.13;;;3.03;;
26820;SDS011;37186;51.394;5.454;2023-07-29T01:51:07;3.17;;;3.08;;
26820;SDS011;37186;51.394;5.454;2023-07-29T01:54:09;3.35;;;3.25;;
26820;SDS011;37186;51.394;5.454;2023-07-29T01:57:10;3.22;;;3.13;;
26820;SDS011;37186;51.394;5.454;2023-07-29T02:00:11;3.42;;;3.33;;
26820;SDS011;37186;51.394;5.454;2023-07-29T02:03:12;3.47;;;3.38;;
26820;SDS011;37186;51.394;5.454;2023-07-29T02:06:12;3.47;;;3.38;;
26820;SDS011;37186;51.394;5.454;2023-07-29T02:09:13;3.65;;;3.55;;
26820;SDS011;37186;51.394;5.454;2023-07-29T02:12:13;3.60;;;3.50;;
26820;SDS011;37186;51.394;5.454;2023-07-29T02:15:14;3.63;;;3.53;;
26820;SDS011;37186;51.394;5.454;2023-07-29T02:18:14;3.30;;;3.20;;
26820;SDS011;37186;51.394;5.454;2023-07-29T02:21:15;3.45;;;3.35;;
26820;SDS011;37186;51.394;5.454;2023-07-29T02:24:16;3.33;;;3.22;;
26820;SDS011;37186;51.394;5.454;2023-07-29T02:27:17;3.17;;;3.08;;
26820;SDS011;37186;51.394;5.454;2023-07-29T02:30:17;3.30;;;3.20;;
26820;SDS011;37186;51.394;5.454;2023-07-29T02:33:18;3.33;;;3.22;;
26820;SDS011;37186;51.394;5.454;2023-07-29T02:36:18;3.03;;;2.92;;
26820;SDS011;37186;51.394;5.454;2023-07-29T02:39:19;3.22;;;3.13;;
26820;SDS011;37186;51.394;5.454;2023-07-29T02:42:20;3.13;;;3.03;;
26820;SDS011;37186;51.394;5.454;2023-07-29T02:45:21;3.25;;;3.15;;
26820;SDS011;37186;51.394;5.454;2023-07-29T02:48:21;3.20;;;3.10;;
26820;SDS011;37186;51.394;5.454;2023-07-29T02:51:22;3.00;;;2.90;;
26820;SDS011;37186;51.394;5.454;2023-07-29T02:54:23;3.17;;;3.08;;
26820;SDS011;37186;51.394;5.454;2023-07-29T02:57:23;3.10;;;3.00;;
26820;SDS011;37186;51.394;5.454;2023-07-29T03:00:24;3.05;;;2.95;;
26820;SDS011;37186;51.394;5.454;2023-07-29T03:03:24;3.15;;;3.05;;
26820;SDS011;37186;51.394;5.454;2023-07-29T03:06:25;3.40;;;3.30;;
26820;SDS011;37186;51.394;5.454;2023-07-29T03:09:25;3.20;;;3.10;;
26820;SDS011;37186;51.394;5.454;2023-07-29T03:12:26;3.17;;;3.08;;
26820;SDS011;37186;51.394;5.454;2023-07-29T03:15:27;3.30;;;3.20;;
26820;SDS011;37186;51.394;5.454;2023-07-29T03:18:28;3.10;;;3.00;;
26820;SDS011;37186;51.394;5.454;2023-07-29T03:21:28;3.17;;;3.08;;
26820;SDS011;37186;51.394;5.454;2023-07-29T03:24:29;3.03;;;2.92;;
26820;SDS011;37186;51.394;5.454;2023-07-29T03:27:29;3.13;;;3.03;;
26820;SDS011;37186;51.394;5.454;2023-07-29T03:30:30;3.03;;;2.92;;
26820;SDS011;37186;51.394;5.454;2023-07-29T03:33:31;3.35;;;3.25;;
26820;SDS011;37186;51.394;5.454;2023-07-29T03:36:31;3.13;;;3.03;;
26820;SDS011;37186;51.394;5.454;2023-07-29T03:39:32;3.05;;;2.95;;
26820;SDS011;37186;51.394;5.454;2023-07-29T03:42:33;3.10;;;3.00;;
26820;SDS011;37186;51.394;5.454;2023-07-29T03:45:34;3.10;;;3.00;;
26820;SDS011;37186;51.394;5.454;2023-07-29T03:48:35;3.05;;;2.95;;
26820;SDS011;37186;51.394;5.454;2023-07-29T03:51:35;3.10;;;3.00;;
26820;SDS011;37186;51.394;5.454;2023-07-29T03:54:36;3.10;;;3.00;;
26820;SDS011;37186;51.394;5.454;2023-07-29T03:57:36;3.10;;;3.00;;
26820;SDS011;37186;51.394;5.454;2023-07-29T04:00:37;3.20;;;3.10;;
26820;SDS011;37186;51.394;5.454;2023-07-29T04:03:37;3.10;;;3.00;;
26820;SDS011;37186;51.394;5.454;2023-07-29T04:06:38;3.20;;;3.10;;
26820;SDS011;37186;51.394;5.454;2023-07-29T04:09:39;3.15;;;3.05;;
26820;SDS011;37186;51.394;5.454;2023-07-29T04:12:39;3.35;;;3.25;;
26820;SDS011;37186;51.394;5.454;2023-07-29T04:15:40;3.20;;;3.10;;
26820;SDS011;37186;51.394;5.454;2023-07-29T04:18:40;3.15;;;3.05;;
26820;SDS011;37186;51.394;5.454;2023-07-29T04:21:41;3.00;;;2.90;;
26820;SDS011;37186;51.394;5.454;2023-07-29T04:24:42;3.10;;;3.00;;
26820;SDS011;37186;51.394;5.454;2023-07-29T04:27:42;3.28;;;3.17;;
26820;SDS011;37186;51.394;5.454;2023-07-29T04:30:43;3.30;;;3.20;;
26820;SDS011;37186;51.394;5.454;2023-07-29T04:33:43;3.20;;;3.10;;
26820;SDS011;37186;51.394;5.454;2023-07-29T04:36:45;3.20;;;3.10;;
26820;SDS011;37186;51.394;5.454;2023-07-29T04:39:46;3.25;;;3.15;;
26820;SDS011;37186;51.394;5.454;2023-07-29T04:42:46;3.33;;;3.22;;
26820;SDS011;37186;51.394;5.454;2023-07-29T04:45:47;3.42;;;3.33;;
26820;SDS011;37186;51.394;5.454;2023-07-29T04:48:48;3.30;;;3.20;;
26820;SDS011;37186;51.394;5.454;2023-07-29T04:51:48;3.35;;;3.25;;
26820;SDS011;37186;51.394;5.454;2023-07-29T04:54:49;3.33;;;3.22;;
26820;SDS011;37186;51.394;5.454;2023-07-29T04:57:50;3.42;;;3.33;;
26820;SDS011;37186;51.394;5.454;2023-07-29T05:00:51;3.20;;;3.10;;
26820;SDS011;37186;51.394;5.454;2023-07-29T05:03:51;3.53;;;3.42;;
26820;SDS011;37186;51.394;5.454;2023-07-29T05:06:52;3.50;;;3.40;;
26820;SDS011;37186;51.394;5.454;2023-07-29T05:09:52;3.70;;;3.60;;
26820;SDS011;37186;51.394;5.454;2023-07-29T05:12:53;3.70;;;3.60;;
26820;SDS011;37186;51.394;5.454;2023-07-29T05:15:53;3.60;;;3.50;;
26820;SDS011;37186;51.394;5.454;2023-07-29T05:18:54;3.80;;;3.70;;
26820;SDS011;37186;51.394;5.454;2023-07-29T05:21:55;3.60;;;3.50;;
26820;SDS011;37186;51.394;5.454;2023-07-29T05:24:56;3.78;;;3.67;;
26820;SDS011;37186;51.394;5.454;2023-07-29T05:27:56;3.60;;;3.50;;
26820;SDS011;37186;51.394;5.454;2023-07-29T05:31:00;3.80;;;3.70;;
26820;SDS011;37186;51.394;5.454;2023-07-29T05:34:01;3.60;;;3.50;;
26820;SDS011;37186;51.394;5.454;2023-07-29T05:37:02;3.60;;;3.50;;
26820;SDS011;37186;51.394;5.454;2023-07-29T05:40:03;3.65;;;3.55;;
26820;SDS011;37186;51.394;5.454;2023-07-29T05:43:04;3.63;;;3.53;;
26820;SDS011;37186;51.394;5.454;2023-07-29T05:46:04;3.50;;;3.40;;
26820;SDS011;37186;51.394;5.454;2023-07-29T05:49:05;3.70;;;3.60;;
26820;SDS011;37186;51.394;5.454;2023-07-29T05:52:05;3.72;;;3.63;;
26820;SDS011;37186;51.394;5.454;2023-07-29T05:55:07;3.90;;;3.80;;
26820;SDS011;37186;51.394;5.454;2023-07-29T05:58:08;3.70;;;3.60;;
26820;SDS011;37186;51.394;5.454;2023-07-29T06:01:09;3.67;;;3.58;;
26820;SDS011;37186;51.394;5.454;2023-07-29T06:04:10;3.95;;;3.85;;
26820;SDS011;37186;51.394;5.454;2023-07-29T06:07:10;4.00;;;3.90;;
26820;SDS011;37186;51.394;5.454;2023-07-29T06:10:14;3.80;;;3.70;;
26820;SDS011;37186;51.394;5.454;2023-07-29T06:13:18;4.30;;;4.20;;
26820;SDS011;37186;51.394;5.454;2023-07-29T06:16:19;3.90;;;3.80;;
26820;SDS011;37186;51.394;5.454;2023-07-29T06:19:20;4.00;;;3.90;;
26820;SDS011;37186;51.394;5.454;2023-07-29T06:22:20;3.85;;;3.75;;
26820;SDS011;37186;51.394;5.454;2023-07-29T06:25:21;4.00;;;3.90;;
26820;SDS011;37186;51.394;5.454;2023-07-29T06:28:22;4.10;;;4.00;;
26820;SDS011;37186;51.394;5.454;2023-07-29T06:31:23;3.80;;;3.70;;
26820;SDS011;37186;51.394;5.454;2023-07-29T06:34:23;4.00;;;3.90;;
26820;SDS011;37186;51.394;5.454;2023-07-29T06:37:24;3.92;;;3.83;;
26820;SDS011;37186;51.394;5.454;2023-07-29T06:40:24;3.92;;;3.83;;
26820;SDS011;37186;51.394;5.454;2023-07-29T06:43:25;3.80;;;3.70;;
26820;SDS011;37186;51.394;5.454;2023-07-29T06:46:26;3.80;;;3.70;;
26820;SDS011;37186;51.394;5.454;2023-07-29T06:49:26;3.60;;;3.50;;
26820;SDS011;37186;51.394;5.454;2023-07-29T06:52:27;3.90;;;3.80;;
26820;SDS011;37186;51.394;5.454;2023-07-29T06:55:27;4.15;;;4.05;;
26820;SDS011;37186;51.394;5.454;2023-07-29T06:58:28;4.13;;;4.03;;
26820;SDS011;37186;51.394;5.454;2023-07-29T07:01:28;4.00;;;3.90;;
26820;SDS011;37186;51.394;5.454;2023-07-29T07:04:29;3.60;;;3.50;;
26820;SDS011;37186;51.394;5.454;2023-07-29T07:07:29;3.75;;;3.65;;
26820;SDS011;37186;51.394;5.454;2023-07-29T07:10:30;3.75;;;3.65;;
26820;SDS011;37186;51.394;5.454;2023-07-29T07:13:31;3.38;;;3.28;;
26820;SDS011;37186;51.394;5.454;2023-07-29T07:16:32;3.45;;;3.35;;
26820;SDS011;37186;51.394;5.454;2023-07-29T07:19:33;3.50;;;3.40;;
26820;SDS011;37186;51.394;5.454;2023-07-29T07:22:33;3.60;;;3.50;;
26820;SDS011;37186;51.394;5.454;2023-07-29T07:25:34;3.40;;;3.30;;
26820;SDS011;37186;51.394;5.454;2023-07-29T07:28:34;3.50;;;3.40;;
26820;SDS011;37186;51.394;5.454;2023-07-29T07:31:35;3.60;;;3.50;;
26820;SDS011;37186;51.394;5.454;2023-07-29T07:34:35;3.60;;;3.50;;
26820;SDS011;37186;51.394;5.454;2023-07-29T07:37:36;3.58;;;3.47;;
26820;SDS011;37186;51.394;5.454;2023-07-29T07:40:37;3.63;;;3.53;;
26820;SDS011;37186;51.394;5.454;2023-07-29T07:43:37;3.53;;;3.42;;
26820;SDS011;37186;51.394;5.454;2023-07-29T07:46:38;3.40;;;3.30;;
26820;SDS011;37186;51.394;5.454;2023-07-29T07:49:38;3.40;;;3.30;;
26820;SDS011;37186;51.394;5.454;2023-07-29T07:52:39;3.17;;;3.08;;
26820;SDS011;37186;51.394;5.454;2023-07-29T07:55:39;3.28;;;3.17;;
26820;SDS011;37186;51.394;5.454;2023-07-29T07:58:40;3.25;;;3.15;;
26820;SDS011;37186;51.394;5.454;2023-07-29T08:01:41;3.33;;;3.22;;
26820;SDS011;37186;51.394;5.454;2023-07-29T08:04:41;3.50;;;3.40;;
26820;SDS011;37186;51.394;5.454;2023-07-29T08:07:42;3.58;;;3.47;;
26820;SDS011;37186;51.394;5.454;2023-07-29T08:10:42;3.50;;;3.40;;
26820;SDS011;37186;51.394;5.454;2023-07-29T08:13:43;3.55;;;3.45;;
26820;SDS011;37186;51.394;5.454;2023-07-29T08:16:43;3.35;;;3.25;;
26820;SDS011;37186;51.394;5.454;2023-07-29T08:19:44;3.15;;;3.05;;
26820;SDS011;37186;51.394;5.454;2023-07-29T08:22:44;3.10;;;3.00;;
26820;SDS011;37186;51.394;5.454;2023-07-29T08:25:49;3.17;;;3.08;;
26820;SDS011;37186;51.394;5.454;2023-07-29T08:28:54;3.15;;;3.05;;
26820;SDS011;37186;51.394;5.454;2023-07-29T08:31:54;3.15;;;3.05;;
26820;SDS011;37186;51.394;5.454;2023-07-29T08:34:55;3.15;;;3.05;;
26820;SDS011;37186;51.394;5.454;2023-07-29T08:37:55;3.20;;;3.10;;
26820;SDS011;37186;51.394;5.454;2023-07-29T08:44:20;2.63;;;2.63;;
26820;SDS011;37186;51.394;5.454;2023-07-29T08:47:23;2.92;;;2.83;;
26820;SDS011;37186;51.394;5.454;2023-07-29T08:50:24;2.83;;;2.72;;
26820;SDS011;37186;51.394;5.454;2023-07-29T08:53:25;2.67;;;2.67;;
26820;SDS011;37186;51.394;5.454;2023-07-29T08:56:27;2.95;;;2.85;;
26820;SDS011;37186;51.394;5.454;2023-07-29T08:59:33;2.95;;;2.85;;
26820;SDS011;37186;51.394;5.454;2023-07-29T09:02:33;2.88;;;2.78;;
26820;SDS011;37186;51.394;5.454;2023-07-29T09:05:34;2.92;;;2.83;;
26820;SDS011;37186;51.394;5.454;2023-07-29T09:08:35;2.95;;;2.85;;
26820;SDS011;37186;51.394;5.454;2023-07-29T09:11:36;3.08;;;2.97;;
26820;SDS011;37186;51.394;5.454;2023-07-29T09:14:36;3.17;;;3.08;;
26820;SDS011;37186;51.394;5.454;2023-07-29T09:17:37;3.00;;;2.90;;
26820;SDS011;37186;51.394;5.454;2023-07-29T09:20:40;3.05;;;2.95;;
26820;SDS011;37186;51.394;5.454;2023-07-29T09:23:41;2.92;;;2.83;;
26820;SDS011;37186;51.394;5.454;2023-07-29T09:26:48;2.88;;;2.78;;
26820;SDS011;37186;51.394;5.454;2023-07-29T09:29:50;3.15;;;3.05;;
26820;SDS011;37186;51.394;5.454;2023-07-29T09:32:57;3.35;;;3.25;;
26820;SDS011;37186;51.394;5.454;2023-07-29T09:35:58;3.10;;;3.00;;
26820;SDS011;37186;51.394;5.454;2023-07-29T09:38:59;3.22;;;3.13;;
26820;SDS011;37186;51.394;5.454;2023-07-29T09:41:59;3.22;;;3.13;;
26820;SDS011;37186;51.394;5.454;2023-07-29T09:45:00;3.60;;;3.50;;
26820;SDS011;37186;51.394;5.454;2023-07-29T09:48:01;3.55;;;3.45;;
26820;SDS011;37186;51.394;5.454;2023-07-29T09:51:10;3.50;;;3.40;;
26820;SDS011;37186;51.394;5.454;2023-07-29T09:54:11;3.45;;;3.35;;
26820;SDS011;37186;51.394;5.454;2023-07-29T09:57:13;3.28;;;3.17;;
26820;SDS011;37186;51.394;5.454;2023-07-29T10:00:14;3.28;;;3.17;;
26820;SDS011;37186;51.394;5.454;2023-07-29T10:03:15;3.10;;;3.00;;
26820;SDS011;37186;51.394;5.454;2023-07-29T10:06:16;3.28;;;3.17;;
26820;SDS011;37186;51.394;5.454;2023-07-29T10:09:18;3.20;;;3.10;;
26820;SDS011;37186;51.394;5.454;2023-07-29T10:12:21;3.60;;;3.50;;
26820;SDS011;37186;51.394;5.454;2023-07-29T10:15:22;3.30;;;3.20;;
26820;SDS011;37186;51.394;5.454;2023-07-29T10:18:24;3.40;;;3.30;;
26820;SDS011;37186;51.394;5.454;2023-07-29T10:21:25;3.20;;;3.10;;
26820;SDS011;37186;51.394;5.454;2023-07-29T10:24:29;3.40;;;3.30;;
26820;SDS011;37186;51.394;5.454;2023-07-29T10:27:34;3.30;;;3.20;;
26820;SDS011;37186;51.394;5.454;2023-07-29T10:30:59;3.50;;;3.40;;
26820;SDS011;37186;51.394;5.454;2023-07-29T10:34:00;3.45;;;3.35;;
26820;SDS011;37186;51.394;5.454;2023-07-29T10:37:01;3.17;;;3.08;;
26820;SDS011;37186;51.394;5.454;2023-07-29T10:40:03;3.20;;;3.10;;
26820;SDS011;37186;51.394;5.454;2023-07-29T10:43:10;3.15;;;3.05;;
26820;SDS011;37186;51.394;5.454;2023-07-29T10:46:18;3.15;;;3.05;;
26820;SDS011;37186;51.394;5.454;2023-07-29T10:49:22;2.90;;;2.80;;
26820;SDS011;37186;51.394;5.454;2023-07-29T10:55:36;2.92;;;2.83;;
26820;SDS011;37186;51.394;5.454;2023-07-29T10:58:37;3.10;;;3.00;;
26820;SDS011;37186;51.394;5.454;2023-07-29T11:01:41;3.03;;;2.92;;
26820;SDS011;37186;51.394;5.454;2023-07-29T11:04:47;3.30;;;3.20;;
26820;SDS011;37186;51.394;5.454;2023-07-29T11:07:50;3.00;;;2.90;;
26820;SDS011;37186;51.394;5.454;2023-07-29T11:11:03;3.30;;;3.20;;
26820;SDS011;37186;51.394;5.454;2023-07-29T11:14:08;3.00;;;2.90;;
26820;SDS011;37186;51.394;5.454;2023-07-29T11:17:10;3.00;;;2.90;;
26820;SDS011;37186;51.394;5.454;2023-07-29T11:20:13;2.80;;;2.70;;
26820;SDS011;37186;51.394;5.454;2023-07-29T11:23:15;2.80;;;2.70;;
26820;SDS011;37186;51.394;5.454;2023-07-29T11:26:15;2.80;;;2.70;;
26820;SDS011;37186;51.394;5.454;2023-07-29T11:29:16;2.80;;;2.70;;
26820;SDS011;37186;51.394;5.454;2023-07-29T11:32:16;3.00;;;2.90;;
26820;SDS011;37186;51.394;5.454;2023-07-29T11:35:18;2.90;;;2.80;;
26820;SDS011;37186;51.394;5.454;2023-07-29T11:38:19;3.00;;;2.90;;
26820;SDS011;37186;51.394;5.454;2023-07-29T11:41:20;3.00;;;2.90;;
26820;SDS011;37186;51.394;5.454;2023-07-29T11:44:22;2.90;;;2.80;;
26820;SDS011;37186;51.394;5.454;2023-07-29T11:47:22;3.00;;;2.90;;
26820;SDS011;37186;51.394;5.454;2023-07-29T11:50:23;3.10;;;3.00;;
26820;SDS011;37186;51.394;5.454;2023-07-29T11:53:25;3.00;;;2.90;;
26820;SDS011;37186;51.394;5.454;2023-07-29T11:56:28;2.90;;;2.80;;
26820;SDS011;37186;51.394;5.454;2023-07-29T11:59:30;3.00;;;2.90;;
26820;SDS011;37186;51.394;5.454;2023-07-29T12:02:34;3.10;;;3.00;;
26820;SDS011;37186;51.394;5.454;2023-07-29T12:05:36;2.88;;;2.78;;
26820;SDS011;37186;51.394;5.454;2023-07-29T12:08:37;2.90;;;2.80;;
26820;SDS011;37186;51.394;5.454;2023-07-29T12:11:38;3.10;;;3.00;;
26820;SDS011;37186;51.394;5.454;2023-07-29T12:14:43;3.00;;;2.90;;
26820;SDS011;37186;51.394;5.454;2023-07-29T12:17:45;3.15;;;3.05;;
26820;SDS011;37186;51.394;5.454;2023-07-29T12:20:45;2.95;;;2.85;;
26820;SDS011;37186;51.394;5.454;2023-07-29T12:23:47;3.20;;;3.10;;
26820;SDS011;37186;51.394;5.454;2023-07-29T12:26:51;3.13;;;3.03;;
26820;SDS011;37186;51.394;5.454;2023-07-29T12:29:52;3.28;;;3.17;;
26820;SDS011;37186;51.394;5.454;2023-07-29T12:32:53;3.33;;;3.22;;
26820;SDS011;37186;51.394;5.454;2023-07-29T12:35:54;3.80;;;3.70;;
26820;SDS011;37186;51.394;5.454;2023-07-29T12:38:58;3.20;;;3.10;;
26820;SDS011;37186;51.394;5.454;2023-07-29T12:41:59;3.00;;;2.90;;
26820;SDS011;37186;51.394;5.454;2023-07-29T12:45:01;3.15;;;3.05;;
26820;SDS011;37186;51.394;5.454;2023-07-29T12:48:02;3.25;;;3.15;;
26820;SDS011;37186;51.394;5.454;2023-07-29T12:51:02;3.65;;;3.55;;
26820;SDS011;37186;51.394;5.454;2023-07-29T12:54:03;4.45;;;4.35;;
26820;SDS011;37186;51.394;5.454;2023-07-29T12:57:04;4.13;;;4.03;;
26820;SDS011;37186;51.394;5.454;2023-07-29T13:00:06;3.00;;;2.90;;
26820;SDS011;37186;51.394;5.454;2023-07-29T13:03:09;3.22;;;3.13;;
26820;SDS011;37186;51.394;5.454;2023-07-29T13:06:09;3.42;;;3.33;;
26820;SDS011;37186;51.394;5.454;2023-07-29T13:09:10;3.20;;;3.10;;
26820;SDS011;37186;51.394;5.454;2023-07-29T13:12:10;2.97;;;2.88;;
26820;SDS011;37186;51.394;5.454;2023-07-29T13:15:11;3.03;;;2.92;;
26820;SDS011;37186;51.394;5.454;2023-07-29T13:18:11;3.33;;;3.22;;
26820;SDS011;37186;51.394;5.454;2023-07-29T13:21:12;3.63;;;3.53;;
26820;SDS011;37186;51.394;5.454;2023-07-29T13:24:12;3.28;;;3.17;;
26820;SDS011;37186;51.394;5.454;2023-07-29T13:27:13;2.80;;;2.72;;
26820;SDS011;37186;51.394;5.454;2023-07-29T13:30:13;2.65;;;2.63;;
26820;SDS011;37186;51.394;5.454;2023-07-29T13:33:14;2.58;;;2.58;;
26820;SDS011;37186;51.394;5.454;2023-07-29T13:36:15;2.67;;;2.65;;
26820;SDS011;37186;51.394;5.454;2023-07-29T13:39:15;2.90;;;2.80;;
26820;SDS011;37186;51.394;5.454;2023-07-29T13:42:16;3.10;;;3.00;;
26820;SDS011;37186;51.394;5.454;2023-07-29T13:45:16;3.10;;;3.00;;
26820;SDS011;37186;51.394;5.454;2023-07-29T13:48:17;3.00;;;2.90;;
26820;SDS011;37186;51.394;5.454;2023-07-29T13:51:18;3.00;;;2.90;;
26820;SDS011;37186;51.394;5.454;2023-07-29T13:54:18;2.42;;;2.42;;
26820;SDS011;37186;51.394;5.454;2023-07-29T13:57:19;2.40;;;2.40;;
26820;SDS011;37186;51.394;5.454;2023-07-29T14:00:19;2.40;;;2.40;;
26820;SDS011;37186;51.394;5.454;2023-07-29T14:03:20;2.33;;;2.33;;
26820;SDS011;37186;51.394;5.454;2023-07-29T14:06:21;2.42;;;2.42;;
26820;SDS011;37186;51.394;5.454;2023-07-29T14:09:21;2.60;;;2.60;;
26820;SDS011;37186;51.394;5.454;2023-07-29T14:12:22;2.50;;;2.50;;
26820;SDS011;37186;51.394;5.454;2023-07-29T14:15:23;2.42;;;2.42;;
26820;SDS011;37186;51.394;5.454;2023-07-29T14:18:23;2.53;;;2.53;;
26820;SDS011;37186;51.394;5.454;2023-07-29T14:21:24;2.55;;;2.55;;
26820;SDS011;37186;51.394;5.454;2023-07-29T14:24:24;3.00;;;2.90;;
26820;SDS011;37186;51.394;5.454;2023-07-29T14:27:25;3.17;;;3.08;;
26820;SDS011;37186;51.394;5.454;2023-07-29T14:30:26;3.30;;;3.20;;
26820;SDS011;37186;51.394;5.454;2023-07-29T14:33:26;2.92;;;2.83;;
26820;SDS011;37186;51.394;5.454;2023-07-29T14:36:27;2.97;;;2.88;;
26820;SDS011;37186;51.394;5.454;2023-07-29T14:39:28;3.00;;;2.90;;
26820;SDS011;37186;51.394;5.454;2023-07-29T14:42:28;3.00;;;2.90;;
26820;SDS011;37186;51.394;5.454;2023-07-29T14:45:29;2.60;;;2.60;;
26820;SDS011;37186;51.394;5.454;2023-07-29T14:48:29;2.63;;;2.60;;
26820;SDS011;37186;51.394;5.454;2023-07-29T14:51:30;2.58;;;2.58;;
26820;SDS011;37186;51.394;5.454;2023-07-29T14:54:31;3.28;;;3.17;;
26820;SDS011;37186;51.394;5.454;2023-07-29T14:57:31;3.13;;;3.03;;
26820;SDS011;37186;51.394;5.454;2023-07-29T15:00:33;3.55;;;3.45;;
26820;SDS011;37186;51.394;5.454;2023-07-29T15:03:33;4.03;;;3.92;;
26820;SDS011;37186;51.394;5.454;2023-07-29T15:06:34;4.38;;;4.28;;
26820;SDS011;37186;51.394;5.454;2023-07-29T15:09:35;4.13;;;4.03;;
26820;SDS011;37186;51.394;5.454;2023-07-29T15:12:36;4.45;;;4.35;;
26820;SDS011;37186;51.394;5.454;2023-07-29T15:15:37;4.55;;;4.45;;
26820;SDS011;37186;51.394;5.454;2023-07-29T15:18:40;4.30;;;4.20;;
26820;SDS011;37186;51.394;5.454;2023-07-29T15:21:41;4.35;;;4.25;;
26820;SDS011;37186;51.394;5.454;2023-07-29T15:24:42;4.03;;;3.92;;
26820;SDS011;37186;51.394;5.454;2023-07-29T15:27:46;3.70;;;3.60;;
26820;SDS011;37186;51.394;5.454;2023-07-29T15:30:47;3.72;;;3.63;;
26820;SDS011;37186;51.394;5.454;2023-07-29T15:33:47;3.30;;;3.20;;
26820;SDS011;37186;51.394;5.454;2023-07-29T15:36:48;2.97;;;2.88;;
26820;SDS011;37186;51.394;5.454;2023-07-29T15:39:49;2.92;;;2.83;;
26820;SDS011;37186;51.394;5.454;2023-07-29T15:42:49;3.55;;;3.45;;
26820;SDS011;37186;51.394;5.454;2023-07-29T15:45:50;3.78;;;3.67;;
26820;SDS011;37186;51.394;5.454;2023-07-29T15:48:51;3.92;;;3.83;;
26820;SDS011;37186;51.394;5.454;2023-07-29T15:51:51;4.05;;;3.95;;
26820;SDS011;37186;51.394;5.454;2023-07-29T15:54:52;4.13;;;4.03;;
26820;SDS011;37186;51.394;5.454;2023-07-29T15:57:54;4.07;;;3.97;;
26820;SDS011;37186;51.394;5.454;2023-07-29T16:00:55;3.72;;;3.63;;
26820;SDS011;37186;51.394;5.454;2023-07-29T16:03:55;3.88;;;3.78;;
26820;SDS011;37186;51.394;5.454;2023-07-29T16:06:56;4.10;;;4.00;;
26820;SDS011;37186;51.394;5.454;2023-07-29T16:09:56;4.00;;;3.90;;
26820;SDS011;37186;51.394;5.454;2023-07-29T16:12:57;4.10;;;4.00;;
26820;SDS011;37186;51.394;5.454;2023-07-29T16:15:58;4.50;;;4.40;;
26820;SDS011;37186;51.394;5.454;2023-07-29T16:18:58;4.65;;;4.55;;
26820;SDS011;37186;51.394;5.454;2023-07-29T16:21:59;4.82;;;4.72;;
26820;SDS011;37186;51.394;5.454;2023-07-29T16:25:00;4.20;;;4.10;;
26820;SDS011;37186;51.394;5.454;2023-07-29T16:28:01;3.85;;;3.75;;
26820;SDS011;37186;51.394;5.454;2023-07-29T16:31:02;4.10;;;4.00;;
26820;SDS011;37186;51.394;5.454;2023-07-29T16:34:02;3.78;;;3.67;;
26820;SDS011;37186;51.394;5.454;2023-07-29T16:37:04;3.95;;;3.85;;
26820;SDS011;37186;51.394;5.454;2023-07-29T16:40:06;4.05;;;3.95;;
26820;SDS011;37186;51.394;5.454;2023-07-29T16:43:07;4.05;;;3.95;;
26820;SDS011;37186;51.394;5.454;2023-07-29T16:46:08;4.32;;;4.22;;
26820;SDS011;37186;51.394;5.454;2023-07-29T16:49:08;4.18;;;4.07;;
26820;SDS011;37186;51.394;5.454;2023-07-29T16:52:09;4.05;;;3.95;;
26820;SDS011;37186;51.394;5.454;2023-07-29T16:55:09;3.90;;;3.80;;
26820;SDS011;37186;51.394;5.454;2023-07-29T16:58:10;4.38;;;4.28;;
26820;SDS011;37186;51.394;5.454;2023-07-29T17:01:11;3.58;;;3.47;;
26820;SDS011;37186;51.394;5.454;2023-07-29T17:04:11;3.75;;;3.65;;
26820;SDS011;37186;51.394;5.454;2023-07-29T17:07:12;4.28;;;4.18;;
26820;SDS011;37186;51.394;5.454;2023-07-29T17:10:12;3.90;;;3.80;;
26820;SDS011;37186;51.394;5.454;2023-07-29T17:13:13;3.25;;;3.15;;
26820;SDS011;37186;51.394;5.454;2023-07-29T17:16:13;3.13;;;3.03;;
26820;SDS011;37186;51.394;5.454;2023-07-29T17:19:14;3.60;;;3.50;;
26820;SDS011;37186;51.394;5.454;2023-07-29T17:22:14;4.55;;;4.45;;
26820;SDS011;37186;51.394;5.454;2023-07-29T17:25:15;4.38;;;4.28;;
26820;SDS011;37186;51.394;5.454;2023-07-29T17:28:16;4.25;;;4.15;;
26820;SDS011;37186;51.394;5.454;2023-07-29T17:31:16;4.35;;;4.25;;
26820;SDS011;37186;51.394;5.454;2023-07-29T17:34:17;4.20;;;4.10;;
26820;SDS011;37186;51.394;5.454;2023-07-29T17:37:18;4.57;;;4.47;;
26820;SDS011;37186;51.394;5.454;2023-07-29T17:40:18;4.43;;;4.32;;
26820;SDS011;37186;51.394;5.454;2023-07-29T17:43:19;4.70;;;4.60;;
26820;SDS011;37186;51.394;5.454;2023-07-29T17:46:19;4.43;;;4.32;;
26820;SDS011;37186;51.394;5.454;2023-07-29T17:49:20;3.58;;;3.47;;
26820;SDS011;37186;51.394;5.454;2023-07-29T17:52:21;3.63;;;3.53;;
26820;SDS011;37186;51.394;5.454;2023-07-29T17:55:21;3.65;;;3.55;;
26820;SDS011;37186;51.394;5.454;2023-07-29T17:58:22;3.00;;;2.90;;
26820;SDS011;37186;51.394;5.454;2023-07-29T18:01:22;2.55;;;2.55;;
26820;SDS011;37186;51.394;5.454;2023-07-29T18:04:23;3.20;;;3.10;;
26820;SDS011;37186;51.394;5.454;2023-07-29T18:07:24;2.85;;;2.78;;
26820;SDS011;37186;51.394;5.454;2023-07-29T18:10:24;3.03;;;2.92;;
26820;SDS011;37186;51.394;5.454;2023-07-29T18:13:25;3.85;;;3.75;;
26820;SDS011;37186;51.394;5.454;2023-07-29T18:16:25;3.90;;;3.80;;
26820;SDS011;37186;51.394;5.454;2023-07-29T18:19:26;4.32;;;4.22;;
26820;SDS011;37186;51.394;5.454;2023-07-29T18:22:29;4.10;;;4.00;;
26820;SDS011;37186;51.394;5.454;2023-07-29T18:25:31;4.93;;;4.82;;